Time;durP1;ratioP1;P1;durP2;ratioP2;P2;SDS_P1;SDS_P2;PMS_P1;PMS_P2;Temp;Humidity;BMP_temperature;BMP_pressure;BME280_temperature;BME280_humidity;BME280_pressure;Samples;Min_cycle;Max_cycle;Signal;HPM_P1;HPM_P2
2023/09/19 00:00:26;;;;;;;7.65;5.32;;;;;;;17.52;100.00;102027.25;5054495;28;20032;-69
2023/09/19 00:02:59;;;;;;;9.85;5.38;;;;;;;18.01;100.00;102026.88;5072169;28;20025;-69
2023/09/19 00:05:28;;;;;;;7.43;5.57;;;;;;;17.82;100.00;102048.84;5072430;28;20045;-69
2023/09/19 00:08:00;;;;;;;9.35;5.38;;;;;;;17.85;100.00;102025.56;5072587;28;20052;-69
2023/09/19 00:10:26;;;;;;;;;;;;;;;18.01;100.00;102086.09;5072330;28;20024;-69
2023/09/19 00:12:55;;;;;;;6.70;5.43;;;;;;;17.90;100.00;102088.97;5053650;28;20436;-69
2023/09/19 00:15:21;;;;;;;8.82;5.70;;;;;;;18.33;100.00;102109.31;5053798;28;20040;-70
2023/09/19 00:17:47;;;;;;;6.20;5.45;;;;;;;18.28;100.00;102123.22;5071989;28;20544;-69
2023/09/19 00:20:15;;;;;;;6.82;5.30;;;;;;;17.69;100.00;102107.47;5053902;28;20029;-70
2023/09/19 00:22:41;;;;;;;8.45;5.93;;;;;;;17.45;100.00;102099.44;5053934;28;20025;-69
2023/09/19 00:25:07;;;;;;;8.13;6.10;;;;;;;17.58;100.00;102099.16;5053771;28;20665;-71
2023/09/19 00:27:35;;;;;;;7.15;5.35;;;;;;;17.52;100.00;102046.97;5072309;28;20090;-69
2023/09/19 00:30:00;;;;;;;7.32;5.63;;;;;;;17.74;100.00;102063.63;5071579;28;20029;-69
2023/09/19 00:32:31;;;;;;;8.15;5.80;;;;;;;18.05;100.00;102051.66;5072398;28;20031;-69
2023/09/19 00:34:57;;;;;;;7.10;5.38;;;;;;;17.53;100.00;102013.50;5053931;28;20037;-69
2023/09/19 00:37:27;;;;;;;7.82;5.80;;;;;;;17.54;100.00;101992.06;5071330;28;20045;-70
2023/09/19 00:39:53;;;;;;;8.77;5.45;;;;;;;17.53;100.00;102020.41;5071468;28;20052;-69
2023/09/19 00:42:21;;;;;;;7.25;5.55;;;;;;;17.50;100.00;101958.72;5053660;28;20028;-69
2023/09/19 00:44:47;;;;;;;6.40;5.40;;;;;;;17.31;100.00;101966.84;5068161;28;20024;-70
2023/09/19 00:47:17;;;;;;;6.95;5.80;;;;;;;17.63;100.00;101926.69;5071168;28;20028;-69
2023/09/19 00:49:44;;;;;;;6.45;5.53;;;;;;;16.97;100.00;101801.47;5071588;28;20040;-69
2023/09/19 00:52:12;;;;;;;6.57;5.28;;;;;;;17.67;100.00;101827.94;5071027;28;20082;-69
2023/09/19 00:54:37;;;;;;;6.55;5.88;;;;;;;17.56;100.00;101715.03;5071103;28;20043;-69
2023/09/19 00:57:03;;;;;;;7.47;5.20;;;;;;;17.69;100.00;101590.28;5071098;28;20029;-69
2023/09/19 00:59:30;;;;;;;7.40;5.78;;;;;;;17.52;100.00;101535.13;5071547;28;20111;-69
2023/09/19 01:01:56;;;;;;;6.50;5.40;;;;;;;17.53;100.00;101360.16;5071199;28;20056;-69
2023/09/19 01:04:22;;;;;;;8.30;5.68;;;;;;;17.42;100.00;101303.09;5071357;28;20519;-73
2023/09/19 01:06:52;;;;;;;7.47;5.82;;;;;;;17.21;100.00;101222.41;5071058;28;20101;-69
2023/09/19 01:09:19;;;;;;;6.78;5.60;;;;;;;17.31;100.00;101244.31;5071497;28;20074;-69
2023/09/19 01:11:49;;;;;;;7.35;5.53;;;;;;;17.18;100.00;101208.81;5070861;28;20040;-69
2023/09/19 01:14:30;;;;;;;9.40;5.68;;;;;;;17.34;100.00;101192.81;5071244;28;20031;-69
2023/09/19 01:17:40;;;;;;;8.50;6.50;;;;;;;17.43;100.00;101221.66;5053028;28;20029;-69
2023/09/19 01:20:17;;;;;;;9.25;6.65;;;;;;;16.97;100.00;101201.88;5008990;28;20033;-69
2023/09/19 01:23:02;;;;;;;9.73;7.40;;;;;;;16.93;100.00;101183.16;5066442;28;20123;-69
2023/09/19 01:25:52;;;;;;;11.32;7.90;;;;;;;16.60;100.00;101183.47;5071108;28;20411;-68
2023/09/19 01:28:21;;;;;;;14.38;7.90;;;;;;;16.57;100.00;101183.56;5053097;28;20064;-69
2023/09/19 01:30:50;;;;;;;12.80;8.13;;;;;;;16.65;100.00;101168.72;5070833;28;20037;-69
2023/09/19 01:33:19;;;;;;;9.93;7.82;;;;;;;16.83;100.00;101161.25;5053129;28;20479;-69
2023/09/19 01:35:45;;;;;;;11.32;7.72;;;;;;;16.64;100.00;101129.34;5070889;28;20028;-70
2023/09/19 01:38:11;;;;;;;10.57;8.23;;;;;;;16.44;100.00;101144.56;5071217;28;20120;-71
2023/09/19 01:40:47;;;;;;;9.45;8.45;;;;;;;16.24;100.00;101091.31;5071190;28;20036;-70
2023/09/19 01:43:23;;;;;;;11.77;8.70;;;;;;;16.38;100.00;101116.56;5070899;28;20029;-70
2023/09/19 01:46:34;;;;;;;10.68;8.35;;;;;;;16.09;100.00;101108.94;5070853;28;20050;-69
2023/09/19 01:49:02;;;;;;;9.98;8.60;;;;;;;16.44;100.00;101090.66;5008594;28;20432;-69
2023/09/19 01:51:45;;;;;;;11.20;8.27;;;;;;;16.25;100.00;101069.06;5008927;28;20073;-70
2023/09/19 01:54:13;;;;;;;9.27;7.97;;;;;;;16.15;100.00;101016.38;5049048;28;20127;-69
2023/09/19 01:57:01;;;;;;;11.65;8.13;;;;;;;16.57;100.00;101079.13;5070645;28;20060;-70
2023/09/19 01:59:37;;;;;;;9.10;7.53;;;;;;;16.28;100.00;101079.25;5070788;28;20032;-70
2023/09/19 02:02:06;;;;;;;9.27;8.27;;;;;;;16.23;100.00;101076.81;5070768;28;20494;-70
2023/09/19 02:04:34;;;;;;;9.80;7.90;;;;;;;16.17;100.00;101056.50;5070632;28;20031;-69
2023/09/19 02:07:01;;;;;;;8.65;7.18;;;;;;;16.29;100.00;101021.88;5070614;28;20037;-70
2023/09/19 02:09:26;;;;;;;7.72;6.93;;;;;;;16.75;100.00;101062.22;5070566;28;20036;-69
2023/09/19 02:11:52;;;;;;;7.75;6.95;;;;;;;16.84;100.00;101061.88;5070371;28;20032;-68
2023/09/19 02:14:19;;;;;;;10.43;6.63;;;;;;;16.75;100.00;101047.66;5070758;28;20067;-70
2023/09/19 02:16:45;;;;;;;7.22;6.28;;;;;;;16.43;100.00;101012.81;5070510;28;20032;-69
2023/09/19 02:19:11;;;;;;;6.45;5.72;;;;;;;16.58;100.00;101052.53;5070192;28;20035;-69
2023/09/19 02:21:36;;;;;;;8.63;6.28;;;;;;;16.54;100.00;101029.59;5070414;28;20024;-71
2023/09/19 02:24:03;;;;;;;8.00;5.90;;;;;;;16.87;100.00;101074.63;5052359;28;20032;-69
2023/09/19 02:26:28;;;;;;;7.15;6.00;;;;;;;16.92;100.00;101078.69;5070498;28;20036;-71
2023/09/19 02:28:54;;;;;;;9.20;6.03;;;;;;;16.99;100.00;101087.88;5069038;28;20028;-68
2023/09/19 02:31:19;;;;;;;7.90;5.93;;;;;;;17.09;100.00;101068.63;5066524;28;20024;-71
2023/09/19 02:33:46;;;;;;;6.57;5.85;;;;;;;17.02;100.00;101089.47;5090455;28;20391;-68
2023/09/19 02:36:11;;;;;;;10.10;5.50;;;;;;;17.06;100.00;101086.75;5090703;28;20119;-68
2023/09/19 02:38:37;;;;;;;8.00;5.65;;;;;;;16.77;100.00;101058.72;5075666;28;20111;-68
2023/09/19 02:41:03;;;;;;;7.45;6.20;;;;;;;16.59;100.00;101118.41;5075893;28;20096;-69
2023/09/19 02:43:28;;;;;;;8.88;6.55;;;;;;;16.21;100.00;101165.84;5059533;28;20040;-68
2023/09/19 02:45:54;;;;;;;8.02;6.80;;;;;;;16.27;100.00;101168.22;5093733;28;20066;-68
2023/09/19 02:48:20;;;;;;;7.93;7.00;;;;;;;16.27;100.00;101134.88;5093576;28;20105;-68
2023/09/19 02:50:46;;;;;;;11.18;7.45;;;;;;;16.16;100.00;101292.66;5093451;28;20194;-69
2023/09/19 02:53:14;;;;;;;8.85;6.75;;;;;;;16.40;100.00;101299.59;5093773;28;20066;-69
2023/09/19 02:55:40;;;;;;;10.40;6.63;;;;;;;16.56;100.00;101315.41;5093820;28;20027;-69
2023/09/19 02:58:11;;;;;;;8.02;6.93;;;;;;;16.51;100.00;101317.25;5074835;28;20040;-68
2023/09/19 03:00:37;;;;;;;7.97;6.80;;;;;;;15.96;100.00;101287.25;5073586;28;20025;-69
2023/09/19 03:03:03;;;;;;;9.23;6.80;;;;;;;16.47;100.00;101345.59;5073409;28;20031;-69
2023/09/19 03:05:32;;;;;;;8.85;6.47;;;;;;;16.13;100.00;101319.22;5073522;28;20474;-69
2023/09/19 03:08:00;;;;;;;7.90;6.60;;;;;;;16.06;100.00;101332.28;5073575;28;20036;-68
2023/09/19 03:10:26;;;;;;;9.38;6.80;;;;;;;16.50;100.00;101392.63;5073585;28;20029;-69
2023/09/19 03:12:52;;;;;;;9.15;7.00;;;;;;;16.16;100.00;101383.28;5071257;28;20517;-68
2023/09/19 03:15:19;;;;;;;9.35;7.47;;;;;;;15.82;100.00;101350.91;5072096;28;20119;-70
2023/09/19 03:17:47;;;;;;;13.40;7.47;;;;;;;15.52;100.00;101337.19;5057862;28;20029;-68
2023/09/19 03:20:17;;;;;;;8.70;6.95;;;;;;;15.79;100.00;101372.34;5034910;28;20036;-69
2023/09/19 03:22:45;;;;;;;9.65;7.03;;;;;;;15.73;100.00;101371.69;5053240;28;20029;-68
2023/09/19 03:25:11;;;;;;;8.73;7.32;;;;;;;15.82;100.00;101397.09;5053249;28;20025;-68
2023/09/19 03:27:40;;;;;;;12.45;7.43;;;;;;;15.63;100.00;101412.09;5052847;28;20036;-68
2023/09/19 03:30:08;;;;;;;13.50;7.78;;;;;;;15.48;100.00;101423.59;5053108;28;20484;-69
2023/09/19 03:32:43;;;;;;;14.23;8.25;;;;;;;14.98;100.00;101426.47;5072599;28;20418;-69
2023/09/19 03:35:11;;;;;;;9.40;7.45;;;;;;;14.91;100.00;101416.41;5071885;28;20070;-69
2023/09/19 03:37:36;;;;;;;10.13;7.90;;;;;;;15.54;100.00;101477.28;5071535;28;20402;-69
2023/09/19 03:40:04;;;;;;;8.93;7.07;;;;;;;15.33;100.00;101477.75;5072460;28;20064;-68
2023/09/19 03:42:31;;;;;;;10.57;8.13;;;;;;;15.34;100.00;101471.75;5071556;28;20119;-67
2023/09/19 03:44:56;;;;;;;12.55;7.65;;;;;;;15.51;100.00;101490.16;5072648;28;20079;-69
2023/09/19 03:47:22;;;;;;;11.32;8.15;;;;;;;15.16;100.00;101482.41;5051497;28;20072;-72
2023/09/19 03:49:48;;;;;;;10.55;7.95;;;;;;;15.16;100.00;101482.41;5070438;28;20028;-69
2023/09/19 03:52:15;;;;;;;8.90;7.38;;;;;;;15.15;100.00;101490.97;5070560;28;20029;-73
2023/09/19 03:54:43;;;;;;;10.88;7.72;;;;;;;15.15;100.00;101500.41;5071013;28;20505;-69
2023/09/19 03:57:08;;;;;;;13.18;7.72;;;;;;;14.90;100.00;101518.00;5072169;28;20509;-70
2023/09/19 03:59:35;;;;;;;10.65;8.15;;;;;;;14.85;100.00;101512.16;5072415;28;20029;-69
2023/09/19 04:02:01;;;;;;;12.95;9.27;;;;;;;14.89;100.00;101535.97;5071103;28;20036;-68
2023/09/19 04:04:29;;;;;;;10.57;7.80;;;;;;;15.11;100.00;101547.47;5070954;28;20052;-68
2023/09/19 04:06:54;;;;;;;10.38;9.27;;;;;;;14.89;100.00;101546.22;5066940;28;20358;-70
2023/09/19 04:09:20;;;;;;;11.80;8.52;;;;;;;14.86;100.00;101508.69;5051326;28;20411;-72
2023/09/19 04:11:45;;;;;;;15.18;8.70;;;;;;;15.42;100.00;101561.31;5051825;28;20025;-69
2023/09/19 04:14:11;;;;;;;10.45;8.48;;;;;;;15.30;100.00;101564.97;5052491;28;20388;-71
2023/09/19 04:16:36;;;;;;;10.68;8.70;;;;;;;15.17;100.00;101527.66;5034807;28;20043;-71
2023/09/19 04:19:03;;;;;;;12.43;9.00;;;;;;;15.35;100.00;101540.06;5072182;28;20028;-70
2023/09/19 04:21:29;;;;;;;15.02;9.00;;;;;;;15.61;100.00;101585.66;5071771;28;20038;-68
2023/09/19 04:23:54;;;;;;;16.45;9.15;;;;;;;15.44;100.00;101583.47;5054121;28;20032;-68
2023/09/19 04:26:20;;;;;;;14.32;10.02;;;;;;;15.04;100.00;101533.06;5069900;28;20055;-68
2023/09/19 04:28:46;;;;;;;16.55;10.98;;;;;;;15.23;100.00;101552.31;5065422;28;20479;-71
2023/09/19 04:31:11;;;;;;;15.77;11.02;;;;;;;15.24;100.00;101587.31;5069860;28;20070;-69
2023/09/19 04:33:37;;;;;;;14.40;10.60;;;;;;;15.17;100.00;101558.41;5070780;28;20123;-69
2023/09/19 04:36:07;;;;;;;12.00;9.40;;;;;;;15.13;100.00;101520.91;5071772;28;20101;-69
2023/09/19 04:38:33;;;;;;;13.35;9.07;;;;;;;15.83;100.00;101570.59;5070207;28;20039;-69
2023/09/19 04:40:58;;;;;;;14.18;7.53;;;;;;;18.23;100.00;101638.31;5071638;28;20040;-70
2023/09/19 04:43:24;;;;;;;16.92;8.85;;;;;;;16.02;100.00;101600.09;5071818;28;20063;-72
2023/09/19 04:45:50;;;;;;;13.85;9.13;;;;;;;16.25;100.00;101610.63;5071113;28;20486;-67
2023/09/19 04:48:16;;;;;;;14.52;8.77;;;;;;;16.02;100.00;101611.19;5069559;28;20025;-67
2023/09/19 04:50:41;;;;;;;10.70;7.78;;;;;;;16.33;100.00;101612.13;5070333;28;20040;-67
2023/09/19 04:53:07;;;;;;;9.40;8.02;;;;;;;16.05;100.00;101584.59;5070685;28;20033;-69
2023/09/19 04:55:32;;;;;;;13.70;8.70;;;;;;;16.18;100.00;101614.22;5069580;28;20422;-67
2023/09/19 04:57:58;;;;;;;13.05;8.90;;;;;;;16.16;100.00;101614.25;5069573;28;20498;-68
2023/09/19 05:00:24;;;;;;;14.23;9.10;;;;;;;16.26;100.00;101630.28;5070152;28;20777;-68
2023/09/19 05:02:51;;;;;;;17.00;9.80;;;;;;;15.90;100.00;101595.25;5069938;28;20032;-67
2023/09/19 05:05:17;;;;;;;15.27;10.20;;;;;;;16.30;100.00;101637.03;5070904;28;20028;-69
2023/09/19 05:07:43;;;;;;;18.15;10.57;;;;;;;16.07;100.00;101596.53;5071232;28;20029;-68
2023/09/19 05:10:10;;;;;;;11.75;8.60;;;;;;;15.38;100.00;101616.91;5071187;28;20452;-68
2023/09/19 05:12:36;;;;;;;12.30;9.20;;;;;;;15.71;100.00;101592.25;5069903;28;20585;-70
2023/09/19 05:15:07;;;;;;;14.75;9.18;;;;;;;15.87;100.00;101626.09;5071178;28;20103;-68
2023/09/19 05:17:33;;;;;;;12.73;9.20;;;;;;;16.20;100.00;101618.44;5069970;28;20029;-67
2023/09/19 05:19:58;;;;;;;11.48;8.52;;;;;;;16.71;100.00;101634.28;5069884;28;20618;-68
2023/09/19 05:22:26;;;;;;;12.25;8.98;;;;;;;17.29;100.00;101642.03;5070757;28;20033;-68
2023/09/19 05:24:52;;;;;;;13.57;9.48;;;;;;;17.62;100.00;101642.84;5071243;28;20021;-67
2023/09/19 05:27:20;;;;;;;15.93;9.40;;;;;;;17.74;100.00;101610.72;5071088;28;20035;-68
2023/09/19 05:29:46;;;;;;;16.60;10.10;;;;;;;17.84;100.00;101564.09;5069733;28;20406;-67
2023/09/19 05:32:11;;;;;;;12.73;8.65;;;;;;;17.35;100.00;101587.06;5068879;28;20034;-68
2023/09/19 05:34:38;;;;;;;10.95;8.13;;;;;;;17.94;100.00;101590.38;5070760;28;20037;-68
2023/09/19 05:37:06;;;;;;;12.45;8.18;;;;;;;18.44;100.00;101586.13;5070799;28;20055;-67
2023/09/19 05:39:33;;;;;;;10.50;8.18;;;;;;;18.38;100.00;101538.19;5068263;28;20477;-68
2023/09/19 05:42:00;;;;;;;11.98;7.97;;;;;;;18.47;100.00;101521.63;5070104;28;20127;-68
2023/09/19 05:44:25;;;;;;;12.93;7.80;;;;;;;18.80;100.00;101539.28;5069734;28;20027;-68
2023/09/19 05:46:51;;;;;;;11.13;7.78;;;;;;;19.45;100.00;101559.19;5070741;28;20028;-68
2023/09/19 05:49:17;;;;;;;10.95;8.50;;;;;;;19.24;100.00;101506.66;5070643;28;20025;-67
2023/09/19 05:51:42;;;;;;;14.38;8.73;;;;;;;19.48;100.00;101515.19;5070632;28;20017;-67
2023/09/19 05:54:08;;;;;;;14.38;9.07;;;;;;;19.57;100.00;101513.06;5069230;28;20059;-67
2023/09/19 05:56:33;;;;;;;21.27;9.27;;;;;;;20.10;100.00;101578.03;5070260;28;20036;-68
2023/09/19 05:59:00;;;;;;;17.17;8.93;;;;;;;20.17;100.00;101566.53;5070540;28;20394;-68
2023/09/19 06:01:25;;;;;;;12.13;8.80;;;;;;;20.57;100.00;101561.38;5070496;28;20031;-68
2023/09/19 06:03:52;;;;;;;16.02;8.23;;;;;;;20.88;100.00;101547.09;5070703;28;20028;-68
2023/09/19 06:06:18;;;;;;;13.45;9.35;;;;;;;20.57;100.00;101579.47;5069247;28;20036;-68
2023/09/19 06:08:44;;;;;;;13.80;8.85;;;;;;;20.50;100.00;101655.56;5068764;28;20139;-68
2023/09/19 06:11:10;;;;;;;16.52;8.07;;;;;;;21.06;100.00;101818.72;5070796;28;20459;-68
2023/09/19 06:13:39;;;;;;;13.88;7.80;;;;;;;20.97;100.00;102074.34;5073337;28;20129;-68
2023/09/19 06:16:05;;;;;;;12.40;6.82;;;;;;;21.67;100.00;102339.25;5073087;28;20021;-68
2023/09/19 06:18:33;;;;;;;13.50;6.93;;;;;;;21.44;100.00;102883.78;5073954;28;20025;-68
2023/09/19 06:20:59;;;;;;;19.73;7.43;;;;;;;22.22;100.00;103747.66;5074593;28;20032;-68
2023/09/19 06:23:26;;;;;;;9.02;7.03;;;;;;;21.83;100.00;103914.16;5074344;28;20479;-68
2023/09/19 06:25:54;;;;;;;14.23;6.50;;;;;;;22.45;100.00;104035.28;5074079;28;20054;-68
2023/09/19 06:28:24;;;;;;;11.50;6.47;;;;;;;22.81;100.00;104184.53;5073536;28;20047;-69
2023/09/19 06:30:49;;;;;;;10.35;5.93;;;;;;;22.35;100.00;104304.34;5074140;28;20070;-69
2023/09/19 06:33:15;;;;;;;9.82;5.32;;;;;;;22.47;100.00;104528.25;5074147;28;20052;-68
2023/09/19 06:35:41;;;;;;;8.35;5.50;;;;;;;23.22;100.00;104675.94;5074106;28;20055;-68
2023/09/19 06:38:07;;;;;;;16.35;6.03;;;;;;;23.32;100.00;104693.22;5073884;28;20036;-70
2023/09/19 06:40:34;;;;;;;8.52;5.65;;;;;;;23.45;100.00;104736.50;5073273;28;20048;-68
2023/09/19 06:43:01;;;;;;;9.52;5.25;;;;;;;23.93;100.00;105734.31;5073218;28;20036;-68
2023/09/19 06:45:27;;;;;;;9.70;5.00;;;;;;;23.17;100.00;105567.22;5072372;28;20097;-69
2023/09/19 06:47:57;;;;;;;10.10;5.35;;;;;;;23.39;100.00;105446.13;5073687;28;20466;-68
2023/09/19 06:50:23;;;;;;;11.15;5.38;;;;;;;24.38;100.00;105322.44;5073576;28;20028;-68
2023/09/19 06:52:51;;;;;;;9.95;5.05;;;;;;;24.55;100.00;105099.34;5071798;28;20043;-69
2023/09/19 06:55:19;;;;;;;6.95;4.78;;;;;;;23.77;100.00;104718.94;5073217;28;20546;-68
2023/09/19 06:57:45;;;;;;;10.45;5.20;;;;;;;24.30;100.00;104341.16;5073898;28;20035;-68
2023/09/19 07:00:25;;;;;;;5.85;4.70;;;;;;;24.53;100.00;103682.16;5073779;28;20028;-69
2023/09/19 07:03:00;;;;;;;11.43;9.57;;;;;;;25.06;100.00;103178.75;5073814;28;20078;-68
2023/09/19 07:05:27;;;;;;;5.05;4.20;;;;;;;24.46;100.00;102970.16;5056490;28;20119;-68
2023/09/19 07:07:55;;;;;;;8.73;4.18;;;;;;;24.70;100.00;102884.13;5035114;28;20475;-68
2023/09/19 07:10:23;;;;;;;7.30;4.15;;;;;;;24.38;100.00;102725.03;5053056;28;20029;-68
2023/09/19 07:12:54;;;;;;;5.88;4.00;;;;;;;24.89;100.00;102640.38;5053209;28;20124;-68
2023/09/19 07:15:21;;;;;;;5.85;3.83;;;;;;;25.14;100.00;102485.56;5034881;28;20380;-69
2023/09/19 07:17:46;;;;;;;6.38;3.90;;;;;;;24.84;100.00;102345.53;5052734;28;20040;-69
2023/09/19 07:20:16;;;;;;;5.50;3.85;;;;;;;25.25;100.00;102228.84;5052791;28;20395;-68
2023/09/19 07:22:41;;;;;;;6.38;3.80;;;;;;;25.39;100.00;102179.44;5051614;28;20091;-69
2023/09/19 07:25:07;;;;;;;5.40;3.90;;;;;;;25.47;100.00;102096.50;5052939;28;20025;-68
2023/09/19 07:27:33;;;;;;;6.25;4.10;;;;;;;25.59;100.00;102009.78;5052653;28;20036;-68
2023/09/19 07:29:59;;;;;;;7.30;3.90;;;;;;;25.87;100.00;101974.31;5052599;28;20396;-68
2023/09/19 07:32:24;;;;;;;5.82;3.90;;;;;;;25.98;100.00;101897.09;5052247;28;20025;-70
2023/09/19 07:34:51;;;;;;;4.90;3.85;;;;;;;25.73;100.00;101808.31;5053113;28;20060;-69
2023/09/19 07:37:16;;;;;;;10.75;3.60;;;;;;;25.55;100.00;101765.13;5052185;28;20094;-69
2023/09/19 07:39:44;;;;;;;3.60;3.30;;;;;;;24.78;100.00;101689.09;5052772;28;20032;-69
2023/09/19 07:42:11;;;;;;;7.18;3.30;;;;;;;24.87;100.00;101642.53;5052749;28;20503;-69
2023/09/19 07:44:37;;;;;;;5.03;3.17;;;;;;;25.57;100.00;101636.38;5052921;28;20028;-69
2023/09/19 07:47:03;;;;;;;5.18;3.50;;;;;;;24.34;100.00;101576.41;5034060;28;20029;-69
2023/09/19 07:49:28;;;;;;;6.38;4.18;;;;;;;26.15;100.00;101627.41;5052551;28;20037;-68
2023/09/19 07:51:54;;;;;;;4.68;3.33;;;;;;;26.62;100.00;101578.09;5052998;28;20040;-68
2023/09/19 07:54:35;;;;;;;4.40;3.33;;;;;;;27.13;100.00;101522.22;5034113;28;20045;-75
2023/09/19 07:57:01;;;;;;;7.00;3.60;;;;;;;25.97;100.00;101396.56;5051435;28;20451;-68
2023/09/19 07:59:26;;;;;;;6.32;3.47;;;;;;;26.71;100.00;101399.13;5052349;28;20094;-68
2023/09/19 08:02:00;;;;;;;4.30;3.40;;;;;;;25.89;100.00;101334.50;5050976;28;20025;-69
2023/09/19 08:04:26;;;;;;;5.15;2.97;;;;;;;25.73;100.00;101310.47;5050919;28;20029;-68
2023/09/19 08:06:52;;;;;;;5.72;3.65;;;;;;;25.93;100.00;101303.84;5052082;28;20086;-68
2023/09/19 08:09:20;;;;;;;5.13;3.15;;;;;;;25.66;100.00;101257.09;5034299;28;20129;-69
2023/09/19 08:11:47;;;;;;;4.07;3.25;;;;;;;25.77;100.00;101251.94;5051820;28;20071;-68
2023/09/19 08:14:14;;;;;;;4.50;3.40;;;;;;;26.36;100.00;101200.72;5051978;28;20075;-68
2023/09/19 08:16:40;;;;;;;4.47;3.50;;;;;;;25.38;100.00;101197.41;5052158;28;20063;-68
2023/09/19 08:19:06;;;;;;;4.95;3.50;;;;;;;26.22;100.00;101170.47;5052085;28;20122;-68
2023/09/19 08:21:32;;;;;;;4.82;3.90;;;;;;;26.98;100.00;101230.00;5052480;28;20070;-69
2023/09/19 08:23:57;;;;;;;5.50;3.38;;;;;;;26.86;100.00;101221.28;5051815;28;20412;-68
2023/09/19 08:26:24;;;;;;;4.82;3.28;;;;;;;26.73;100.00;101157.06;5051454;28;20127;-69
2023/09/19 08:28:51;;;;;;;7.03;3.88;;;;;;;26.97;100.00;101076.84;5051495;28;20094;-69
2023/09/19 08:31:17;;;;;;;4.53;3.65;;;;;;;27.35;100.00;101054.63;5051820;28;20032;-69
2023/09/19 08:33:45;;;;;;;5.35;4.10;;;;;;;27.29;100.00;101075.97;5050079;28;20033;-69
2023/09/19 08:36:11;;;;;;;6.30;3.50;;;;;;;27.44;100.00;101072.16;5051950;28;20122;-68
2023/09/19 08:38:37;;;;;;;4.82;3.35;;;;;;;27.71;100.00;101015.97;5051334;28;20056;-68
2023/09/19 08:41:07;;;;;;;8.48;4.10;;;;;;;27.43;100.00;101038.31;5051474;28;20094;-69
2023/09/19 08:43:36;;;;;;;4.87;3.40;;;;;;;27.13;100.00;101007.63;5051319;28;20029;-68
2023/09/19 08:46:14;;;;;;;8.07;3.30;;;;;;;27.86;100.00;100999.84;5051762;28;20029;-68
2023/09/19 08:48:48;;;;;;;5.53;3.53;;;;;;;27.39;100.00;100979.41;5051269;28;20462;-68
2023/09/19 08:51:41;;;;;;;4.00;3.42;;;;;;;27.38;100.00;101030.00;5051259;28;20476;-68
2023/09/19 08:54:07;;;;;;;5.78;3.20;;;;;;;27.71;100.00;100974.94;5051439;28;20067;-68
2023/09/19 08:56:33;;;;;;;4.30;3.40;;;;;;;27.04;100.00;100963.94;5051129;28;20036;-68
2023/09/19 08:59:09;;;;;;;4.85;3.60;;;;;;;27.45;100.00;100952.78;5033254;28;20033;-68
2023/09/19 09:01:35;;;;;;;3.95;3.17;;;;;;;27.50;100.00;100991.56;5051159;28;20033;-68
2023/09/19 09:04:02;;;;;;;6.57;3.10;;;;;;;27.96;100.00;100979.00;5051056;28;20032;-69
2023/09/19 09:06:29;;;;;;;3.78;3.13;;;;;;;27.02;100.00;100973.69;5051065;28;20029;-69
2023/09/19 09:08:56;;;;;;;6.20;3.25;;;;;;;26.74;100.00;100995.09;5049616;28;20122;-68
2023/09/19 09:11:24;;;;;;;3.40;2.80;;;;;;;26.09;100.00;100968.06;5033578;28;20033;-68
2023/09/19 09:13:50;;;;;;;5.32;3.03;;;;;;;27.76;100.00;100961.50;5033191;28;20098;-70
2023/09/19 09:16:19;;;;;;;5.15;3.40;;;;;;;27.07;100.00;100971.53;5051116;28;20116;-69
2023/09/19 09:18:45;;;;;;;5.57;3.30;;;;;;;28.28;100.00;100938.69;5051118;28;20056;-69
2023/09/19 09:21:11;;;;;;;5.47;3.33;;;;;;;28.29;100.00;100963.88;5051006;28;20475;-68
2023/09/19 09:23:37;;;;;;;5.93;3.20;;;;;;;27.61;100.00;100981.91;5049890;28;20033;-67
2023/09/19 09:26:05;;;;;;;5.18;3.30;;;;;;;27.53;100.00;100945.13;5051175;28;20036;-69
2023/09/19 09:28:33;;;;;;;4.28;2.92;;;;;;;28.21;100.00;100974.16;5049696;28;20029;-69
2023/09/19 09:30:59;;;;;;;5.93;2.75;;;;;;;28.47;100.00;100969.31;5050790;28;20457;-70
2023/09/19 09:33:25;;;;;;;5.28;3.00;;;;;;;27.99;100.00;100942.13;5050606;28;20083;-71
2023/09/19 09:35:56;;;;;;;6.43;3.60;;;;;;;28.40;100.00;100978.66;5050699;28;20032;-71
2023/09/19 09:38:33;;;;;;;5.30;3.38;;;;;;;27.94;100.00;100936.41;5050948;28;20454;-69
2023/09/19 09:43:27;;;;;;;5.13;3.00;;;;;;;27.29;100.00;100947.97;5050875;28;20465;-68
2023/09/19 09:48:51;;;;;;;;;;;;;;;28.73;100.00;100938.25;5055399;28;20124;-69
2023/09/19 09:51:30;;;;;;;3.95;2.78;;;;;;;28.44;100.00;100942.56;5069996;28;20575;-69
2023/09/19 09:54:12;;;;;;;3.80;3.10;;;;;;;28.73;100.00;100904.22;5036558;28;20029;-69
2023/09/19 09:57:06;;;;;;;4.95;3.00;;;;;;;28.96;100.00;100942.31;5054876;28;20472;-69
2023/09/19 09:59:50;;;;;;;3.97;3.00;;;;;;;28.78;100.00;100933.44;5054578;28;20087;-69
2023/09/19 10:02:25;;;;;;;5.50;3.28;;;;;;;28.06;100.00;100896.16;5036631;28;20029;-71
2023/09/19 10:04:51;;;;;;;4.43;2.88;;;;;;;28.49;100.00;100930.72;5054452;28;20041;-69
2023/09/19 10:07:32;;;;;;;7.85;3.10;;;;;;;28.11;100.00;100904.44;5054102;28;20507;-70
2023/09/19 10:10:09;;;;;;;4.40;3.40;;;;;;;28.52;100.00;100878.13;5054592;28;20056;-70
2023/09/19 10:12:41;;;;;;;3.95;3.05;;;;;;;28.94;100.00;100869.06;5054508;28;20025;-71
2023/09/19 10:15:10;;;;;;;5.35;2.90;;;;;;;28.80;100.00;100908.75;5054412;28;20120;-69
2023/09/19 10:17:36;;;;;;;5.57;3.05;;;;;;;28.91;100.00;100918.28;5054397;28;20028;-69
2023/09/19 10:20:13;;;;;;;5.40;3.10;;;;;;;29.18;100.00;100910.59;5052534;28;20041;-70
2023/09/19 10:22:42;;;;;;;4.90;2.70;;;;;;;28.62;100.00;100878.16;5036362;28;20086;-69
2023/09/19 10:25:08;;;;;;;4.88;2.80;;;;;;;28.79;100.00;100872.25;5054182;28;20029;-70
2023/09/19 10:27:37;;;;;;;7.35;2.90;;;;;;;28.80;100.00;100877.34;5053872;28;20411;-69
2023/09/19 10:30:08;;;;;;;4.38;2.65;;;;;;;28.77;100.00;100867.16;5054220;28;20033;-69
2023/09/19 10:32:35;;;;;;;4.20;2.72;;;;;;;28.77;100.00;100902.97;5053663;28;20029;-69
2023/09/19 10:35:03;;;;;;;4.65;3.08;;;;;;;28.69;100.00;100856.53;5036238;28;20029;-69
2023/09/19 10:37:32;;;;;;;4.57;2.85;;;;;;;29.04;100.00;100883.00;5036112;28;20461;-69
2023/09/19 10:39:58;;;;;;;4.80;3.05;;;;;;;28.92;100.00;100891.16;5053857;28;20049;-69
2023/09/19 10:42:29;;;;;;;5.20;3.03;;;;;;;28.85;100.00;100859.44;5053861;28;20514;-69
2023/09/19 10:44:59;;;;;;;6.22;3.00;;;;;;;29.57;100.00;100857.16;5053888;28;20029;-69
2023/09/19 10:47:26;;;;;;;3.72;2.78;;;;;;;29.35;100.00;100825.19;5054160;28;20439;-69
2023/09/19 10:49:51;;;;;;;5.97;3.17;;;;;;;29.43;100.00;100806.97;5053562;28;20044;-69
2023/09/19 10:52:23;;;;;;;4.20;3.22;;;;;;;28.65;100.00;100863.00;5053710;28;20033;-69
2023/09/19 10:54:52;;;;;;;4.30;2.65;;;;;;;29.08;100.00;100858.16;5053644;28;20486;-69
2023/09/19 10:57:27;;;;;;;5.80;3.17;;;;;;;29.86;100.00;100836.91;5035205;28;20086;-70
2023/09/19 11:00:27;;;;;;;3.47;2.60;;;;;;;29.89;100.00;100828.72;5053775;28;20479;-69
2023/09/19 11:03:23;;;;;;;4.03;2.95;;;;;;;30.02;100.00;100817.91;5038434;28;20067;-70
2023/09/19 11:06:13;;;;;;;4.00;2.85;;;;;;;28.98;100.00;100819.84;5035817;28;20128;-73
2023/09/19 11:08:57;;;;;;;4.18;2.88;;;;;;;29.27;100.00;100844.25;5053422;28;20035;-70
2023/09/19 11:11:38;;;;;;;4.00;2.85;;;;;;;29.29;100.00;100846.72;5053411;28;20044;-69
2023/09/19 11:14:25;;;;;;;4.20;2.92;;;;;;;30.02;100.00;100820.53;5053179;28;20415;-69
2023/09/19 11:17:07;;;;;;;3.53;2.88;;;;;;;29.53;100.00;100828.72;5053191;28;20028;-70
2023/09/19 11:22:50;;;;;;;4.97;3.08;;;;;;;28.62;100.00;100862.47;5052927;28;20029;-70
2023/09/19 11:25:30;;;;;;;4.35;3.00;;;;;;;28.75;100.00;100853.38;5053045;28;20025;-69
2023/09/19 11:28:13;;;;;;;4.65;2.97;;;;;;;28.64;100.00;100856.13;5035067;28;20115;-70
2023/09/19 11:30:43;;;;;;;4.97;3.20;;;;;;;29.34;100.00;100786.81;5053113;28;20051;-69